Tiempo atmosférico en la estación meteorológica de Puebla de Sanabria, Zamora (910 m.)



Fecha
DESCASC
Temp. máxima en grados centígrados (hora)
DESCASC
Temp. mínima en grados centígrados (hora)
DESCASC
Temp. media en grados centígrados
DESCASC
Racha de viento máxima en m/sg (hora)
DESCASC
Velocidad máxima media en intervalos de 10 minutos(hora)
DESCASC
Precipitaciones diarias en mm
DESCASC
Precipitaciones de 00:00 a 06:00 en mm
DESCASC
Precipitaciones de 06:00 a 12:00 en mm
DESCASC
Precipitaciones de 12:00 a 18:00 en mm
DESCASC
Precipitaciones de 18:00 a 24:00 en mm
DESCASC

Gráficas

Temp. máximas Temp. mínimas Temp. medias Precipitaciones Rachas de viento máximas Velocidades máximas media en intervalos de 10 minutos

Datos horarios

Fecha y hora oficial Temperatura (ºC) Velocidad del viento (km/h) Dirección del viento Racha (km/h) Dirección de racha Precipitación (mm) Presión (hPa) Tendencia (hPa) Humedad (%)
2019-11-12 23:00:00 8.2 6 Sur 16 Sur 0.6 -- -- 98
2019-11-12 22:00:00 7.8 6 Sur 15 Este 1 -- -- 98
2019-11-12 21:00:00 7.4 5 Sur 13 Sur 3.4 -- -- 98
2019-11-12 20:00:00 7.1 2 Sudeste 22 Sudeste 3 -- -- 97
2019-11-12 19:00:00 6.9 8 Sur 24 Sudeste 1.8 -- -- 97
2019-11-12 18:00:00 6.7 9 Sur 23 Sudeste 0.4 -- -- 95
2019-11-12 17:00:00 7.1 7 Sur 24 Sur 0.2 -- -- 92
2019-11-12 16:00:00 7.4 8 Sur 28 Sur 0 -- -- 87
2019-11-12 15:00:00 9.4 6 Sudoeste 22 Sudeste 0 -- -- 77
2019-11-12 14:00:00 10.8 6 Oeste 19 Oeste 0 -- -- 70
2019-11-12 13:00:00 9 5 Sudoeste 24 Oeste 0 -- -- 69
2019-11-12 12:00:00 8.2 5 Sudoeste 15 Oeste 0 -- -- 71
2019-11-12 11:00:00 8 3 Sudoeste 21 Oeste 0 -- -- 72
2019-11-12 10:00:00 3.3 0 Calma 6 Este 0 -- -- 87
2019-11-12 09:00:00 2.1 2 Norte 4 Este 0 -- -- 87
2019-11-12 08:00:00 3.2 0 Calma 2 Nordeste 0 -- -- 80
2019-11-12 07:00:00 4.6 0 Calma 18 Noroeste 0 -- -- 73
2019-11-12 06:00:00 5.6 8 Noroeste 19 Noroeste 0 -- -- 68
2019-11-12 05:00:00 6 8 Noroeste 15 Oeste 0 -- -- 65
2019-11-12 04:00:00 6 5 Oeste 17 Noroeste 0 -- -- 63
2019-11-12 03:00:00 5.9 6 Noroeste 16 Oeste 0 -- -- 61
2019-11-12 02:00:00 5.8 5 Oeste 14 Oeste 0 -- -- 59
2019-11-12 01:00:00 5.5 4 Noroeste 22 Norte 0 -- -- 63
2019-11-12 00:00:00 5.3 8 Noroeste 27 Noroeste 0 -- -- 67
2019-11-11 23:00:00 5.8 9 Noroeste 22 Norte 0 -- -- 66
2019-11-11 22:00:00 5.3 2 Sudoeste 19 Oeste 0 -- -- 70
2019-11-11 21:00:00 4 6 Noroeste 15 Noroeste 0 -- -- 78
2019-11-11 20:00:00 4.8 2 Norte 21 Noroeste 0 -- -- 73
2019-11-11 19:00:00 5.2 2 Norte 10 Norte 0 -- -- 74
2019-11-11 18:00:00 8 6 Noroeste 17 Norte 0 -- -- 63
2019-11-11 17:00:00 9.8 4 Noroeste 14 Noroeste 0 -- -- 56
2019-11-11 16:00:00 10.9 8 Noroeste 22 Noroeste 0 -- -- 53
2019-11-11 15:00:00 12.2 8 Noroeste 20 Noroeste 0 -- -- 48
2019-11-11 14:00:00 12.4 8 Norte 23 Noroeste 0 -- -- 52
2019-11-11 13:00:00 12.9 6 Norte 28 Noroeste 0 -- -- 56
2019-11-11 12:00:00 13.1 4 Sur 14 Oeste 0 -- -- 58
2019-11-11 11:00:00 12.2 3 Nordeste 14 Sur 0 -- -- 67
2019-11-11 10:00:00 8.3 3 Nordeste 21 Este 0 -- -- 92
2019-11-11 09:00:00 6.1 6 Sudeste 17 Sudeste 0 -- -- 97
2019-11-11 08:00:00 6.2 5 Sudeste 19 Sudeste 0 -- -- 96
2019-11-11 07:00:00 6 4 Sudeste 17 Sudeste 0 -- -- 97
2019-11-11 06:00:00 5.5 5 Sudeste 14 Sudeste 0 -- -- 97
2019-11-11 05:00:00 5.1 6 Sudeste 14 Este 0 -- -- 98
2019-11-11 04:00:00 4.5 2 Sur 7 Sur 0 -- -- 97
2019-11-11 03:00:00 4.1 2 Sudoeste 11 Sudeste 0 -- -- 97
2019-11-11 02:00:00 3.7 3 Sudeste 10 Sudeste 0 -- -- 97
2019-11-11 01:00:00 4 0 Calma 9 Nordeste 0 -- -- 95
2019-11-11 00:00:00 4.2 0 Calma 5 Norte 0.2 -- -- 95
2019-11-10 23:00:00 4.3 0 Calma 6 Sudeste 0 -- -- 94
2019-11-10 22:00:00 4 0 Calma 12 Sudeste 0 -- -- 93
2019-11-10 21:00:00 4.2 3 Sudeste 11 Sudeste 0 -- -- 91
2019-11-10 20:00:00 4.8 4 Sudeste 14 Sudeste 0 -- -- 86
2019-11-10 19:00:00 5.7 3 Sudeste 19 Este 0 -- -- 80
2019-11-10 18:00:00 6.6 5 Sur 14 Sudeste 0 -- -- 72
2019-11-10 17:00:00 7 3 Sudeste 13 Este 0 -- -- 68
2019-11-10 16:00:00 7.4 6 Sudeste 22 Sudeste 0 -- -- 68
2019-11-10 15:00:00 7.8 5 Sur 21 Norte 0 -- -- 65
2019-11-10 14:00:00 7.8 8 Noroeste 26 Oeste 0 -- -- 64
2019-11-10 13:00:00 6.3 4 Sudoeste 24 Oeste 0 -- -- 75
2019-11-10 12:00:00 5.5 6 Noroeste 35 Noroeste 0 -- -- 73
2019-11-10 11:00:00 6 11 Noroeste 34 Noroeste 0 -- -- 78
2019-11-10 10:00:00 5.8 11 Noroeste 36 Noroeste 0 -- -- 76
2019-11-10 09:00:00 5 14 Noroeste 31 Noroeste 0 -- -- 69
2019-11-10 08:00:00 4.7 8 Noroeste 29 Noroeste 0 -- -- 74
2019-11-10 07:00:00 4.3 9 Noroeste 27 Noroeste 0 -- -- 78
2019-11-10 06:00:00 4.5 10 Noroeste 43 Oeste 0 -- -- 72
2019-11-10 05:00:00 4.8 13 Noroeste 38 Noroeste 0 -- -- 70
2019-11-10 04:00:00 4.3 12 Noroeste 32 Noroeste 0 -- -- 68
2019-11-10 03:00:00 4.3 10 Noroeste 45 Noroeste 0 -- -- 61
2019-11-10 02:00:00 4.5 16 Noroeste 49 Oeste 0 -- -- 71
2019-11-10 01:00:00 5 12 Oeste 44 Oeste 0 -- -- 68
2019-11-10 00:00:00 4.9 18 Noroeste 45 Oeste 0 -- -- 68
2019-11-09 23:00:00 5.2 9 Noroeste 27 Noroeste 0.2 -- -- 86
2019-11-09 22:00:00 5.6 7 Oeste 27 Noroeste 0.2 -- -- 88
2019-11-09 21:00:00 6.6 9 Noroeste 52 Sudoeste 0 -- -- 81
2019-11-09 20:00:00 7.2 15 Noroeste 45 Noroeste 0 -- -- 68
2019-11-09 19:00:00 7.5 12 Noroeste 31 Noroeste 0 -- -- 68
2019-11-09 18:00:00 8.5 3 Este 25 Oeste 0 -- -- 66
2019-11-09 17:00:00 9.6 9 Oeste 28 Oeste 0 -- -- 63
2019-11-09 16:00:00 9.5 7 Oeste 29 Sudoeste 0 -- -- 66
2019-11-09 15:00:00 11.9 9 Sudoeste 27 Oeste 0 -- -- 72
2019-11-09 14:00:00 11.8 8 Oeste 23 Sudoeste 0 -- -- 75
2019-11-09 13:00:00 8.6 3 Sur 8 Este 0.2 -- -- 92
2019-11-09 12:00:00 8.1 3 Sudoeste 12 Oeste 0 -- -- 89
2019-11-09 11:00:00 7.3 4 Sudoeste 13 Sur 0 -- -- 93
2019-11-09 10:00:00 5.1 2 Nordeste 7 Este 0.2 -- -- 99
2019-11-09 09:00:00 3.8 2 Este 6 Este 0.4 -- -- 98
2019-11-09 08:00:00 3.7 0 Calma 9 Sudoeste 0.2 -- -- 95
2019-11-09 07:00:00 4 4 Sur 18 Sur 0.4 -- -- 89
2019-11-09 06:00:00 2.8 3 Sudoeste 12 Sudoeste 0 -- -- 88
2019-11-09 05:00:00 1.2 3 Norte 9 Oeste 0 -- -- 88
2019-11-09 04:00:00 1.2 2 Este 23 Sudoeste 0 -- -- 83
2019-11-09 03:00:00 1.4 3 Sudoeste 13 Este 0 -- -- 89
2019-11-09 02:00:00 0.7 0 Calma 8 Oeste 0 -- -- 88
2019-11-09 01:00:00 1.2 4 Noroeste 9 Sudeste 0 -- -- 85
2019-11-09 00:00:00 2.3 0 Calma 14 Este 0 -- -- 80
2019-11-08 23:00:00 2.7 3 Este 27 Sudoeste 0 -- -- 78
2019-11-08 22:00:00 4.8 9 Oeste 35 Oeste 0 -- -- 68
2019-11-08 21:00:00 5.1 13 Oeste 41 Oeste 0 -- -- 71
2019-11-08 20:00:00 5.4 9 Oeste 26 Oeste 0 -- -- 72
2019-11-08 19:00:00 5.5 13 Noroeste 30 Oeste 0 -- -- 70
2019-11-08 18:00:00 5.8 12 Noroeste 24 Oeste 0 -- -- 67
2019-11-08 17:00:00 7.1 9 Oeste 28 Oeste 0 -- -- 64
2019-11-08 16:00:00 7.3 8 Oeste 33 Sudoeste 0 -- -- 69
2019-11-08 15:00:00 7.8 11 Oeste 35 Oeste 0 -- -- 66
2019-11-08 14:00:00 8.4 12 Oeste 42 Noroeste 0 -- -- 61
2019-11-08 13:00:00 7.9 11 Oeste 35 Oeste 0 -- -- 64
2019-11-08 12:00:00 8 6 Sudoeste 25 Oeste 0 -- -- 62
2019-11-08 11:00:00 6.8 7 Oeste 32 Oeste 0 -- -- 65
2019-11-08 10:00:00 5.2 7 Oeste 21 Noroeste 0 -- -- 68
2019-11-08 09:00:00 3.1 3 Norte 14 Sur 0 -- -- 75
2019-11-08 08:00:00 2.7 5 Sudeste 21 Sudoeste 0 -- -- 76
2019-11-08 07:00:00 4.2 5 Oeste 19 Oeste 0 -- -- 72
2019-11-08 06:00:00 4 5 Sudoeste 18 Oeste 0 -- -- 72
2019-11-08 05:00:00 3.9 5 Noroeste 19 Noroeste 0 -- -- 70
2019-11-08 04:00:00 3.3 4 Oeste 28 Noroeste 0 -- -- 75
2019-11-08 03:00:00 2.9 4 Oeste 21 Oeste 0 -- -- 80
2019-11-08 02:00:00 3 14 Oeste 36 Oeste 0 -- -- 79
2019-11-08 01:00:00 3.1 13 Noroeste 37 Oeste 0 -- -- 75
2019-11-08 00:00:00 2.5 4 Sudeste 23 Sudoeste 0 -- -- 77
2019-11-07 23:00:00 1.8 4 Noroeste 33 Oeste 0 -- -- 83
2019-11-07 22:00:00 1.8 10 Noroeste 29 Oeste 0 -- -- 85
2019-11-07 21:00:00 1.6 6 Oeste 23 Oeste 0.4 -- -- 92
2019-11-07 20:00:00 2.4 12 Noroeste 31 Oeste 0 -- -- 83
2019-11-07 19:00:00 2.5 12 Noroeste 34 Noroeste 0 -- -- 79
2019-11-07 18:00:00 2.1 11 Noroeste 31 Noroeste 0 -- -- 82
2019-11-07 17:00:00 3.4 11 Noroeste 36 Noroeste 0 -- -- 83
2019-11-07 16:00:00 2.7 5 Oeste 23 Oeste 1.6 -- -- 93
2019-11-07 15:00:00 5.5 13 Noroeste 37 Noroeste 0 -- -- 74
2019-11-07 14:00:00 6 12 Oeste 30 Sudoeste 0 -- -- 80
2019-11-07 13:00:00 5.6 11 Oeste 30 Oeste 0.2 -- -- 81
2019-11-07 12:00:00 6.7 12 Oeste 34 Oeste 0 -- -- 73
2019-11-07 11:00:00 6.1 16 Noroeste 44 Oeste 0 -- -- 66
2019-11-07 10:00:00 5.2 15 Oeste 47 Oeste 0 -- -- 72
2019-11-07 09:00:00 4.3 10 Noroeste 37 Noroeste 0 -- -- 78
2019-11-07 08:00:00 4.3 7 Noroeste 21 Oeste 0 -- -- 80
2019-11-07 07:00:00 5 5 Sudoeste 21 Oeste 0 -- -- 79
2019-11-07 06:00:00 5.6 0 Calma 39 Noroeste 0 -- -- 80
2019-11-07 05:00:00 5.7 2 Sudoeste 21 Sudoeste 0 -- -- 82
2019-11-07 04:00:00 6.7 2 Sudoeste 19 Oeste 0 -- -- 78
2019-11-07 03:00:00 7.5 3 Oeste 17 Sudoeste 0 -- -- 81
2019-11-07 02:00:00 8.2 4 Sudoeste 24 Oeste 0 -- -- 82
2019-11-07 01:00:00 9.1 8 Oeste 24 Oeste 0 -- -- 81
2019-11-07 00:00:00 9.1 4 Sur 14 Sur 0 -- -- 95
2019-11-06 23:00:00 8.9 5 Sur 17 Sur 0.2 -- -- 95
2019-11-06 22:00:00 8.8 6 Sur 18 Sur 0 -- -- 95
2019-11-06 21:00:00 8.5 5 Sur 19 Sur 0.4 -- -- 96
2019-11-06 20:00:00 8.3 4 Sur 12 Sur 0.2 -- -- 97
2019-11-06 19:00:00 8.1 0 Calma 7 Sudeste 0.6 -- -- 96
2019-11-06 18:00:00 8.4 4 Sudeste 15 Sudeste 0 -- -- 93
2019-11-06 17:00:00 9.6 6 Sur 18 Sur 0 -- -- 85
2019-11-06 16:00:00 9.5 5 Sur 17 Sur 0 -- -- 81
2019-11-06 15:00:00 9.8 6 Sur 18 Sur 0 -- -- 78
2019-11-06 14:00:00 9 3 Sur 17 Sur 0 -- -- 81
2019-11-06 13:00:00 9.4 3 Sur 19 Oeste 0 -- -- 75
2019-11-06 12:00:00 8.7 5 Oeste 17 Sudoeste 0 -- -- 74
2019-11-06 11:00:00 8.1 7 Oeste 22 Sudoeste 0 -- -- 73
2019-11-06 10:00:00 7.7 4 Sudoeste 15 Oeste 0 -- -- 78
2019-11-06 09:00:00 7 4 Oeste 14 Oeste 0 -- -- 82
2019-11-06 08:00:00 4.9 5 Noroeste 12 Noroeste 0 -- -- 90
2019-11-06 07:00:00 3.7 3 Norte 9 Norte 0 -- -- 93
2019-11-06 06:00:00 2.2 2 Nordeste 5 Norte 0 -- -- 97
2019-11-06 05:00:00 1.6 0 Calma 8 Nordeste 0 -- -- 95
2019-11-06 04:00:00 1.9 2 Norte 5 Norte 0 -- -- 92
2019-11-06 03:00:00 3.1 0 Calma 5 Norte 0 -- -- 91
2019-11-06 02:00:00 3.2 2 Sudeste 8 Sudeste 0 -- -- 91
2019-11-06 01:00:00 4.2 0 Calma 12 Noroeste 0 -- -- 86
2019-11-06 00:00:00 5.6 3 Sudeste 14 Noroeste 0 -- -- 81
2019-11-05 23:00:00 7.9 8 Oeste 26 Oeste 0 -- -- 70
2019-11-05 22:00:00 8.3 7 Oeste 22 Sudoeste 0 -- -- 66
2019-11-05 21:00:00 7.9 5 Sudoeste 19 Norte 0 -- -- 70
2019-11-05 20:00:00 8.1 6 Noroeste 32 Noroeste 0 -- -- 67
2019-11-05 19:00:00 7.8 3 Sur 24 Norte 0 -- -- 74
2019-11-05 18:00:00 9 7 Noroeste 39 Noroeste 0 -- -- 68
2019-11-05 17:00:00 9.8 6 Norte 30 Norte 0 -- -- 70
2019-11-05 16:00:00 10.6 7 Oeste 42 Noroeste 0 -- -- 66
2019-11-05 15:00:00 9.9 6 Noroeste 33 Oeste 0.2 -- -- 78
2019-11-05 14:00:00 8.9 9 Noroeste 37 Oeste 0.6 -- -- 90
2019-11-05 13:00:00 9 12 Oeste 33 Oeste 0.2 -- -- 82
2019-11-05 12:00:00 9.1 8 Noroeste 33 Sudoeste 0.2 -- -- 78
2019-11-05 11:00:00 8.9 7 Oeste 33 Oeste 0 -- -- 78
2019-11-05 10:00:00 8.2 8 Oeste 37 Oeste 0 -- -- 77
2019-11-05 09:00:00 6.7 5 Oeste 29 Oeste 0 -- -- 82
2019-11-05 08:00:00 6.5 5 Sur 19 Sudeste 0 -- -- 86
2019-11-05 07:00:00 6.2 5 Sur 20 Sur 0 -- -- 85
2019-11-05 06:00:00 5.7 4 Sur 21 Sur 0 -- -- 85
2019-11-05 05:00:00 5.4 5 Sudoeste 25 Sudoeste 0 -- -- 84
2019-11-05 04:00:00 5.2 11 Oeste 31 Sudoeste 0.2 -- -- 85
2019-11-05 03:00:00 3.8 4 Este 23 Sudoeste 0 -- -- 90
2019-11-05 02:00:00 4 4 Oeste 18 Oeste 0 -- -- 88
2019-11-05 01:00:00 4.5 3 Sur 10 Sudeste 0.4 -- -- 92
2019-11-05 00:00:00 4.3 4 Sudeste 20 Este 0 -- -- 86
2019-11-04 23:00:00 4.2 2 Sur 11 Este 0 -- -- 87
2019-11-04 22:00:00 5.1 4 Noroeste 19 Oeste 0 -- -- 82
2019-11-04 21:00:00 4.1 3 Sudeste 13 Este 0 -- -- 91
2019-11-04 20:00:00 5.6 3 Sudoeste 15 Noroeste 0 -- -- 85
2019-11-04 19:00:00 6.8 10 Oeste 34 Oeste 0 -- -- 78
2019-11-04 18:00:00 7.8 11 Noroeste 33 Sudoeste 0 -- -- 72
2019-11-04 17:00:00 8.4 9 Oeste 23 Sudoeste 0.2 -- -- 80
2019-11-04 16:00:00 9.9 9 Oeste 40 Sudoeste 0 -- -- 80
2019-11-04 15:00:00 10.8 13 Sudoeste 42 Sudoeste 0 -- -- 71
2019-11-04 14:00:00 12.3 11 Sudoeste 58 Sudoeste 0 -- -- 67
2019-11-04 13:00:00 13 13 Oeste 36 Oeste 0 -- -- 69
2019-11-04 12:00:00 10.9 5 Sudoeste 31 Noroeste 0 -- -- 77
2019-11-04 11:00:00 10.3 5 Sur 14 Sur 0.2 -- -- 93
2019-11-04 10:00:00 11.2 5 Sudoeste 28 Sudoeste 0 -- -- 88
2019-11-04 09:00:00 10.5 3 Sudoeste 25 Sudoeste 0.2 -- -- 96
2019-11-04 08:00:00 10.1 5 Sur 22 Sudoeste 0.6 -- -- 96
2019-11-04 07:00:00 10.5 8 Sudoeste 25 Oeste 0 -- -- 90
2019-11-04 06:00:00 9.9 4 Sur 24 Sur 0 -- -- 91
2019-11-04 05:00:00 10.6 5 Sur 31 Sudoeste 0 -- -- 84
2019-11-04 04:00:00 11 8 Sur 28 Sudoeste 0 -- -- 85
2019-11-04 03:00:00 11.5 6 Sur 23 Sur 0 -- -- 81
2019-11-04 02:00:00 11.3 5 Sudeste 39 Sudoeste 0 -- -- 80
2019-11-04 01:00:00 12.1 11 Sudoeste 32 Oeste 0 -- -- 74
2019-11-04 00:00:00 12 5 Sur 27 Oeste 0 -- -- 82
2019-11-03 23:00:00 11.4 4 Sur 17 Sur 0 -- -- 86
2019-11-03 22:00:00 10.6 5 Sudeste 23 Sudeste 0 -- -- 94
2019-11-03 21:00:00 10.4 8 Sudeste 22 Sudeste 0 -- -- 95
2019-11-03 20:00:00 11 8 Sudeste 19 Este 0 -- -- 89
2019-11-03 19:00:00 11.4 3 Sur 20 Oeste 0 -- -- 87
2019-11-03 18:00:00 12.7 6 Oeste 31 Sudoeste 0 -- -- 77
2019-11-03 17:00:00 13.1 8 Oeste 23 Sudoeste 0 -- -- 75
2019-11-03 16:00:00 12.1 10 Oeste 36 Noroeste 0 -- -- 74
2019-11-03 15:00:00 12.9 10 Noroeste 42 Noroeste 0 -- -- 67
2019-11-03 14:00:00 11.7 15 Noroeste 43 Oeste 0 -- -- 67
2019-11-03 13:00:00 9.7 15 Oeste 46 Noroeste 0 -- -- 72
2019-11-03 12:00:00 9.2 9 Noroeste 35 Sudoeste 0 -- -- 69
2019-11-03 11:00:00 8.6 12 Noroeste 36 Oeste 0 -- -- 72
2019-11-03 10:00:00 7.8 6 Sudoeste 34 Oeste 0 -- -- 78
2019-11-03 09:00:00 6.9 7 Oeste 45 Noroeste 0 -- -- 78
2019-11-03 08:00:00 6.8 22 Oeste 49 Noroeste 0.2 -- -- 86
2019-11-03 07:00:00 7.2 21 Noroeste 48 Noroeste 0 -- -- 86
2019-11-03 06:00:00 7.8 19 Oeste 53 Oeste 0 -- -- 83
2019-11-03 05:00:00 8.3 16 Oeste 61 Oeste 0.2 -- -- 78
2019-11-03 04:00:00 10.9 13 Oeste 42 Oeste 0.4 -- -- 89
2019-11-03 03:00:00 11.8 12 Oeste 34 Sudoeste 0 -- -- 85
2019-11-03 02:00:00 10.7 8 Sudoeste 25 Oeste 0 -- -- 87
2019-11-03 01:00:00 9.5 6 Sur 21 Oeste 0 -- -- 90
2019-11-03 00:00:00 9.4 6 Sudeste 25 Sudoeste 0 -- -- 86
2019-11-02 23:00:00 9.4 7 Sur 24 Sur 0 -- -- 82
2019-11-02 22:00:00 9.6 9 Sur 30 Sudoeste 0 -- -- 86
2019-11-02 21:00:00 9.8 5 Sur 22 Oeste 0.2 -- -- 82
2019-11-02 20:00:00 10 4 Sur 23 Sudoeste 0 -- -- 80
2019-11-02 19:00:00 9.8 7 Sur 24 Sudeste 0.2 -- -- 91
2019-11-02 18:00:00 11 3 Sur 20 Sudoeste 0 -- -- 78
2019-11-02 17:00:00 11.6 5 Sudoeste 30 Sudoeste 0 -- -- 68
2019-11-02 16:00:00 12.4 7 Sudoeste 29 Sudoeste 0 -- -- 66
2019-11-02 15:00:00 12.6 5 Sudoeste 22 Oeste 0 -- -- 67
2019-11-02 14:00:00 13.9 9 Sur 28 Sudoeste 0 -- -- 65
2019-11-02 13:00:00 13.6 7 Sudoeste 29 Oeste 0 -- -- 68
2019-11-02 12:00:00 12.9 8 Sudoeste 18 Oeste 0 -- -- 73
2019-11-02 11:00:00 12.4 3 Sudoeste 15 Sur 0 -- -- 81
2019-11-02 10:00:00 11.8 4 Sudoeste 17 Oeste 0 -- -- 84
2019-11-02 09:00:00 11.2 4 Oeste 23 Oeste 0 -- -- 88
2019-11-02 08:00:00 11.8 3 Sudoeste 9 Sudoeste 0.2 -- -- 96
2019-11-02 07:00:00 12 4 Sudoeste 16 Sur 1 -- -- 96
2019-11-02 06:00:00 12.3 3 Sur 17 Sur 0.4 -- -- 94
2019-11-02 05:00:00 12.9 5 Sur 16 Sudoeste 0 -- -- 86
2019-11-02 04:00:00 12.9 4 Sur 18 Sudoeste 0 -- -- 86
2019-11-02 03:00:00 12.7 5 Sudoeste 23 Oeste 0.2 -- -- 88
2019-11-02 02:00:00 12.5 3 Oeste 15 Sudoeste 0.2 -- -- 95
2019-11-02 01:00:00 12.6 4 Sur 13 Sudoeste 0.6 -- -- 96
2019-11-02 00:00:00 13.4 5 Sur 19 Sur 0 -- -- 89
2019-11-01 23:00:00 13.8 5 Sudoeste 24 Sur 0 -- -- 85
2019-11-01 22:00:00 13.8 5 Sur 17 Sur 0 -- -- 87
2019-11-01 21:00:00 13.1 4 Sur 15 Sudeste 0 -- -- 91
2019-11-01 20:00:00 13 3 Sudeste 17 Sudeste 0 -- -- 94
2019-11-01 19:00:00 13.2 6 Sudeste 13 Sudeste 0.4 -- -- 92
2019-11-01 18:00:00 15.9 3 Norte 19 Sudoeste 0 -- -- 76
2019-11-01 17:00:00 17.2 4 Sur 20 Sudoeste 0 -- -- 72
2019-11-01 16:00:00 17.3 8 Sudoeste 26 Oeste 0 -- -- 70
2019-11-01 15:00:00 16.3 5 Sur 18 Sur 0.2 -- -- 90
2019-11-01 14:00:00 15.2 4 Sudeste 22 Sur 1.6 -- -- 95
2019-11-01 13:00:00 15.5 3 Sur 19 Sudoeste 0 -- -- 93
2019-11-01 12:00:00 15.4 5 Sur 16 Sur 0.6 -- -- 94
2019-11-01 11:00:00 15 3 Sur 12 Sudoeste 0.8 -- -- 98
2019-11-01 10:00:00 14.6 4 Sur 15 Sur 0.4 -- -- 98
2019-11-01 09:00:00 14.5 4 Sur 12 Sur 0.4 -- -- 97
2019-11-01 08:00:00 14.1 2 Sudoeste 11 Sur 0.2 -- -- 97
2019-11-01 07:00:00 14.6 3 Sudoeste 12 Sur 0 -- -- 93
2019-11-01 06:00:00 14.4 2 Sudoeste 11 Sudoeste 0 -- -- 93
2019-11-01 05:00:00 14.4 3 Sur 13 Oeste 0 -- -- 92
2019-11-01 04:00:00 14.5 2 Sudoeste 19 Oeste 0 -- -- 90
2019-11-01 03:00:00 13.9 0 Calma 12 Oeste 0 -- -- 96
2019-11-01 02:00:00 13.6 4 Sudoeste 13 Sudoeste 0 -- -- 96
2019-11-01 01:00:00 13.5 2 Sur 7 Sudeste 0 -- -- 99
2019-11-01 00:00:00 13.7 0 Calma 9 Sur 0 -- -- 100
2019-10-31 23:00:00 13.5 0 Calma 6 Este 0 -- -- 99
2019-10-31 22:00:00 13.9 0 Calma 6 Sudeste 0 -- -- 98
2019-10-31 21:00:00 14.3 0 Calma 8 Oeste 0 -- -- 97
2019-10-31 20:00:00 14.6 0 Calma 12 Sur 0 -- -- 95
2019-10-31 19:00:00 14.7 4 Sur 11 Sur 0 -- -- 95
2019-10-31 18:00:00 15.4 0 Calma 8 Sudeste 0 -- -- 95
2019-10-31 17:00:00 15.6 0 Calma 10 Sur 0.6 -- -- 95
2019-10-31 16:00:00 17.1 0 Calma 13 Sudoeste 0 -- -- 80
2019-10-31 15:00:00 16.9 4 Sudeste 12 Sudeste 0 -- -- 83
2019-10-31 14:00:00 17.3 4 Sudeste 13 Sur 0 -- -- 81
2019-10-31 13:00:00 17.1 4 Sudeste 12 Sudeste 0 -- -- 83
2019-10-31 12:00:00 15 3 Sur 7 Sudeste 0 -- -- 96
2019-10-31 11:00:00 12.8 3 Sudeste 8 Sudeste 0 -- -- 100
2019-10-31 10:00:00 10 0 Calma 4 Oeste 0 -- -- 100
2019-10-31 09:00:00 8.6 0 Calma 4 Nordeste 0 -- -- 100
2019-10-31 08:00:00 7.8 0 Calma 7 Este 0 -- -- 100
2019-10-31 07:00:00 7.6 0 Calma 5 Norte 0 -- -- 100
2019-10-31 06:00:00 7.8 2 Nordeste 5 Norte 0 -- -- 100
2019-10-31 05:00:00 7.5 0 Calma 3 Nordeste 0 -- -- 100
2019-10-31 04:00:00 7.5 2 Norte 7 Norte 0 -- -- 100
2019-10-31 03:00:00 7.3 0 Calma 5 Noroeste 0 -- -- 100
2019-10-31 02:00:00 7.3 0 Calma 4 Norte 0 -- -- 100
2019-10-31 01:00:00 8 0 Calma 5 Este 0 -- -- 100
2019-10-31 00:00:00 8.9 0 Calma 4 Noroeste 0 -- -- 99
2019-10-30 23:00:00 10.1 0 Calma 3 Este 0 -- -- 99
2019-10-30 22:00:00 10.7 0 Calma 4 Oeste 0 -- -- 99
2019-10-30 21:00:00 11.4 0 Calma 7 Oeste 0 -- -- 99
2019-10-30 20:00:00 12.7 0 Calma 6 Este 0 -- -- 99
2019-10-30 19:00:00 13.1 0 Calma 13 Sudeste 0 -- -- 98
2019-10-30 18:00:00 13.8 3 Sudeste 12 Sudeste 0 -- -- 96
2019-10-30 17:00:00 14.4 3 Sudeste 11 Sudeste 0.2 -- -- 99
2019-10-30 16:00:00 13.7 3 Sudeste 9 Sudeste 0.8 -- -- 99
2019-10-30 15:00:00 13.7 3 Sudeste 11 Sudeste 0.4 -- -- 98
2019-10-30 14:00:00 13.8 3 Sudeste 8 Sudeste 0.4 -- -- 99
2019-10-30 13:00:00 13.7 2 Este 8 Sudeste 0.6 -- -- 98
2019-10-30 12:00:00 13.3 2 Sur 5 Sudeste 0.6 -- -- 99
2019-10-30 11:00:00 12.8 3 Sudeste 8 Sudeste 0.2 -- -- 100
2019-10-30 10:00:00 12.2 0 Calma 5 Este 0.2 -- -- 100
2019-10-30 09:00:00 11.4 0 Calma 2 Oeste 1 -- -- 100
2019-10-30 08:00:00 11.3 0 Calma 2 Este 0 -- -- 99
2019-10-30 07:00:00 11.4 0 Calma 0 Calma 0 -- -- 99
2019-10-30 06:00:00 11.6 0 Calma 2 Noroeste 0 -- -- 99
2019-10-30 05:00:00 11.8 0 Calma 3 Sudoeste 0 -- -- 99
2019-10-30 04:00:00 11.7 0 Calma 2 Nordeste 0 -- -- 99
2019-10-30 03:00:00 11.6 0 Calma 3 Norte 0 -- -- 99
2019-10-30 02:00:00 11.9 0 Calma 2 Sudeste 0 -- -- 98
2019-10-30 01:00:00 12 0 Calma 2 Oeste 0 -- -- 98
2019-10-30 00:00:00 12.1 0 Calma 0 Calma 0 -- -- 98
2019-10-29 23:00:00 12.1 0 Calma 0 Calma 0.2 -- -- 97
2019-10-29 22:00:00 12.2 0 Calma 0 Calma 0 -- -- 97
2019-10-29 21:00:00 12.2 0 Calma 2 Este 0 -- -- 96
2019-10-29 20:00:00 12.5 0 Calma 4 Sudeste 0.2 -- -- 94
2019-10-29 19:00:00 12.7 0 Calma 9 Sudoeste 0 -- -- 92
2019-10-29 18:00:00 13.5 3 Sur 15 Sur 0 -- -- 86
2019-10-29 17:00:00 14.8 4 Sur 18 Sudeste 0 -- -- 80
2019-10-29 16:00:00 15.5 5 Sur 19 Sur 0 -- -- 76
2019-10-29 15:00:00 16 5 Sur 15 Sur 0 -- -- 72
2019-10-29 14:00:00 16.4 5 Sur 16 Sur 0 -- -- 68
2019-10-29 13:00:00 16.1 5 Sudoeste 14 Sudoeste 0 -- -- 77
2019-10-29 12:00:00 14.4 2 Sudeste 8 Sudeste 0 -- -- 86
2019-10-29 11:00:00 13.5 3 Sudeste 6 Sudeste 0 -- -- 94
2019-10-29 10:00:00 11.1 0 Calma 2 Sudoeste 0 -- -- 100
2019-10-29 09:00:00 9.3 0 Calma 2 Norte 0 -- -- 100
2019-10-29 08:00:00 8.9 0 Calma 3 Norte 0 -- -- 100
2019-10-29 07:00:00 9 0 Calma 3 Nordeste 0 -- -- 100
2019-10-29 06:00:00 9 0 Calma 3 Nordeste 0 -- -- 99
2019-10-29 05:00:00 10.1 0 Calma 5 Sur 0 -- -- 98
2019-10-29 04:00:00 11.1 2 Sur 5 Sudeste 0 -- -- 98
2019-10-29 03:00:00 12.2 3 Sudeste 11 Sudeste 1 -- -- 99
2019-10-29 02:00:00 12.4 0 Calma 8 Sudeste 0.2 -- -- 99
2019-10-29 01:00:00 12.3 3 Sudeste 8 Sudeste 0 -- -- 98
2019-10-29 00:00:00 12.7 0 Calma 5 Este 0.8 -- -- 98
2019-10-28 23:00:00 12.8 0 Calma 3 Sudeste 0.8 -- -- 97
2019-10-28 22:00:00 12.9 0 Calma 5 Este 0.2 -- -- 97
2019-10-28 21:00:00 13.3 0 Calma 5 Sur 0.6 -- -- 94
2019-10-28 20:00:00 13.5 3 Sudeste 8 Sudeste 0 -- -- 91
2019-10-28 19:00:00 13.9 3 Sudeste 10 Este 0 -- -- 89
2019-10-28 18:00:00 14.9 0 Calma 7 Sur 0 -- -- 85
2019-10-28 17:00:00 14.9 0 Calma 12 Sur 0 -- -- 86
2019-10-28 16:00:00 16.1 5 Sur 15 Sur 0 -- -- 78
2019-10-28 15:00:00 17 3 Sur 12 Sur 0 -- -- 71
2019-10-28 14:00:00 17.5 6 Sur 16 Sudeste 0 -- -- 67
2019-10-28 13:00:00 17.8 4 Este 13 Este 0 -- -- 64
2019-10-28 12:00:00 15.8 3 Sur 13 Sudeste 0 -- -- 73
2019-10-28 11:00:00 11.8 0 Calma 4 Sudeste 0 -- -- 100
2019-10-28 10:00:00 7.4 0 Calma 3 Norte 0 -- -- 100
2019-10-28 09:00:00 3.8 0 Calma 3 Noroeste 0 -- -- 100
2019-10-28 08:00:00 3.8 0 Calma 4 Norte 0 -- -- 99
2019-10-28 07:00:00 4.5 0 Calma 3 Oeste 0 -- -- 99
2019-10-28 06:00:00 4.8 0 Calma 3 Noroeste 0 -- -- 98
2019-10-28 05:00:00 5.6 0 Calma 4 Oeste 0 -- -- 98
2019-10-28 04:00:00 6.6 0 Calma 4 Noroeste 0 -- -- 97
2019-10-28 03:00:00 7.7 0 Calma 7 Este 0 -- -- 97
2019-10-28 02:00:00 8.3 0 Calma 7 Sudeste 0 -- -- 97
2019-10-28 01:00:00 8.3 0 Calma 3 Norte 0 -- -- 97
2019-10-28 00:00:00 8.2 0 Calma 5 Norte 0 -- -- 96
2019-10-27 23:00:00 9 0 Calma 5 Norte 0 -- -- 95
2019-10-27 22:00:00 9.5 0 Calma 4 Norte 0 -- -- 94
2019-10-27 21:00:00 10.3 0 Calma 5 Sudoeste 0 -- -- 93
2019-10-27 20:00:00 11.4 0 Calma 4 Norte 0 -- -- 92
2019-10-27 19:00:00 12.7 0 Calma 4 Norte 0 -- -- 89
2019-10-27 18:00:00 14.3 0 Calma 3 Noroeste 0 -- -- 84
2019-10-27 17:00:00 15.4 0 Calma 4 Noroeste 0 -- -- 78
2019-10-27 16:00:00 17 0 Calma 5 Noroeste 0 -- -- 66
2019-10-27 15:00:00 16.8 0 Calma 3 Noroeste 0 -- -- 64
2019-10-27 14:00:00 16 0 Calma 5 Norte 0 -- -- 68
2019-10-27 13:00:00 14.9 0 Calma 4 Sudoeste 0 -- -- 80
2019-10-27 12:00:00 11.6 0 Calma 4 Oeste 0 -- -- 89
2019-10-27 11:00:00 8.5 0 Calma 4 Norte 0 -- -- 100
2019-10-27 10:00:00 6.7 0 Calma 3 Norte 0 -- -- 100
2019-10-27 09:00:00 5.3 0 Calma 2 Nordeste 0 -- -- 100
2019-10-27 08:00:00 5 0 Calma 0 Calma 0 -- -- 100
2019-10-27 07:00:00 4.7 0 Calma 2 Norte 0 -- -- 99
2019-10-27 06:00:00 4.9 0 Calma 2 Norte 0 -- -- 98
2019-10-27 05:00:00 5.4 0 Calma 2 Norte 0 -- -- 98
2019-10-27 04:00:00 5.8 0 Calma 2 Norte 0 -- -- 99
2019-10-27 03:00:00 5.6 0 Calma 2 Oeste 0 -- -- 98
2019-10-27 02:00:00 5.7 0 Calma 3 Norte 0 -- -- 98
2019-10-27 01:00:00 6.2 0 Calma 4 Norte 0 -- -- 97
2019-10-27 00:00:00 6.2 0 Calma 4 Norte 0 -- -- 97
2019-10-26 23:00:00 6.8 0 Calma 5 Norte 0 -- -- 95
2019-10-26 22:00:00 8 2 Norte 5 Norte 0 -- -- 94
2019-10-26 21:00:00 9.5 2 Norte 6 Norte 0 -- -- 91
2019-10-26 20:00:00 12.3 0 Calma 4 Norte 0 -- -- 82
2019-10-26 19:00:00 16 0 Calma 8 Sudeste 0 -- -- 66
2019-10-26 18:00:00 18.1 5 Sudeste 14 Sur 0 -- -- 57
2019-10-26 17:00:00 18.5 5 Sur 15 Sudeste 0 -- -- 56
2019-10-26 16:00:00 18.4 6 Sudeste 18 Sudeste 0 -- -- 53
2019-10-26 15:00:00 18.6 6 Sudeste 17 Sudeste 0 -- -- 52
2019-10-26 14:00:00 17.2 4 Sudeste 15 Este 0 -- -- 62
2019-10-26 13:00:00 14.8 6 Sur 13 Sudeste 0 -- -- 74
2019-10-26 12:00:00 10 0 Calma 5 Este 0 -- -- 100
2019-10-26 11:00:00 5 0 Calma 3 Sudeste 0 -- -- 100
2019-10-26 10:00:00 0.5 0 Calma 2 Norte 0 -- -- 100
2019-10-26 09:00:00 -0.3 0 Calma 2 Nordeste 0 -- -- 100
2019-10-26 08:00:00 0 0 Calma 3 Norte 0 -- -- 100
2019-10-26 07:00:00 0.1 0 Calma 2 Oeste 0 -- -- 99
2019-10-26 06:00:00 0.5 0 Calma 3 Norte 0 -- -- 99
2019-10-26 05:00:00 0.9 0 Calma 3 Norte 0 -- -- 99
2019-10-26 04:00:00 1.5 0 Calma 4 Norte 0 -- -- 99
2019-10-26 03:00:00 2.1 0 Calma 8 Sur 0 -- -- 98
2019-10-26 02:00:00 2.3 2 Sur 8 Noroeste 0 -- -- 98
2019-10-26 01:00:00 3 0 Calma 3 Noroeste 0 -- -- 97
2019-10-26 00:00:00 3.9 0 Calma 3 Norte 0 -- -- 95
2019-10-25 23:00:00 5.2 0 Calma 4 Noroeste 0 -- -- 96
2019-10-25 22:00:00 6.4 0 Calma 4 Norte 0 -- -- 93
2019-10-25 21:00:00 8 0 Calma 4 Norte 0 -- -- 90
2019-10-25 20:00:00 10.8 0 Calma 5 Noroeste 0 -- -- 83
2019-10-25 19:00:00 14.3 0 Calma 11 Sudeste 0 -- -- 69
2019-10-25 18:00:00 16.1 4 Sudeste 13 Sur 0 -- -- 60
2019-10-25 17:00:00 16.5 5 Sur 14 Sudeste 0 -- -- 55
2019-10-25 16:00:00 16.2 4 Este 14 Este 0 -- -- 59
2019-10-25 15:00:00 16.1 4 Este 21 Este 0 -- -- 63
2019-10-25 14:00:00 14.2 4 Este 12 Sudeste 0 -- -- 71
2019-10-25 13:00:00 10.1 2 Oeste 5 Norte 0 -- -- 100
2019-10-25 12:00:00 7.9 0 Calma 3 Norte 0 -- -- 100
2019-10-25 11:00:00 3.6 0 Calma 2 Norte 0 -- -- 100
2019-10-25 10:00:00 1 0 Calma 4 Norte 0 -- -- 100
2019-10-25 09:00:00 0.5 0 Calma 3 Norte 0 -- -- 100
2019-10-25 08:00:00 0.3 0 Calma 3 Norte 0 -- -- 99
2019-10-25 07:00:00 0.8 0 Calma 2 Oeste 0 -- -- 99
2019-10-25 06:00:00 1.5 0 Calma 4 Noroeste 0 -- -- 98
2019-10-25 05:00:00 2.5 0 Calma 2 Norte 0 -- -- 97
2019-10-25 04:00:00 3.7 0 Calma 3 Norte 0 -- -- 97
2019-10-25 03:00:00 5.1 0 Calma 2 Norte 0 -- -- 97
2019-10-25 02:00:00 6.6 0 Calma 3 Oeste 0 -- -- 97
2019-10-25 01:00:00 8.1 0 Calma 2 Oeste 0 -- -- 97
2019-10-25 00:00:00 9 0 Calma 3 Oeste 0 -- -- 96
2019-10-24 23:00:00 9.3 0 Calma 4 Oeste 0 -- -- 96
2019-10-24 22:00:00 9.9 0 Calma 9 Sur 0 -- -- 95
2019-10-24 21:00:00 9.6 4 Sudeste 11 Sudeste 0 -- -- 97
2019-10-24 20:00:00 9.8 4 Sudeste 13 Sudeste 0 -- -- 93
2019-10-24 19:00:00 11.4 3 Sur 12 Sur 0 -- -- 88
2019-10-24 18:00:00 11.8 4 Sudoeste 14 Oeste 0 -- -- 86
2019-10-24 17:00:00 11.6 6 Sur 18 Sur 0 -- -- 87
2019-10-24 16:00:00 12.5 5 Sur 17 Sur 0 -- -- 82
2019-10-24 15:00:00 14.5 8 Oeste 22 Oeste 0 -- -- 75
2019-10-24 14:00:00 13.8 9 Noroeste 24 Oeste 0 -- -- 78
2019-10-24 13:00:00 12.6 6 Sudoeste 21 Oeste 0 -- -- 86
2019-10-24 12:00:00 9 3 Sudeste 10 Sudeste 0 -- -- 100
2019-10-24 11:00:00 5.9 2 Sudeste 7 Sudeste 0 -- -- 100
2019-10-24 10:00:00 4.6 0 Calma 12 Sudeste 0 -- -- 100
2019-10-24 09:00:00 3.3 4 Este 14 Este 0 -- -- 100
2019-10-24 08:00:00 2.2 0 Calma 5 Este 0 -- -- 100
2019-10-24 07:00:00 1.8 0 Calma 5 Sudeste 0 -- -- 100
2019-10-24 06:00:00 1.8 0 Calma 7 Este 0 -- -- 100
2019-10-24 05:00:00 2.3 0 Calma 6 Nordeste 0 -- -- 100
2019-10-24 04:00:00 2.2 0 Calma 5 Este 0 -- -- 100
2019-10-24 03:00:00 2.3 0 Calma 4 Norte 0 -- -- 99
2019-10-24 02:00:00 2.9 2 Noroeste 7 Norte 0 -- -- 99
2019-10-24 01:00:00 3.8 0 Calma 9 Norte 0 -- -- 98
2019-10-24 00:00:00 5 2 Este 10 Sudeste 0 -- -- 99
2019-10-23 23:00:00 5.2 0 Calma 4 Este 0 -- -- 99
2019-10-23 22:00:00 5.6 0 Calma 4 Norte 0.2 -- -- 99
2019-10-23 21:00:00 6 0 Calma 6 Noroeste 3.2 -- -- 98
2019-10-23 20:00:00 6.3 0 Calma 13 Norte 0.2 -- -- 97
2019-10-23 19:00:00 6.8 4 Noroeste 15 Sudoeste 0.8 -- -- 95
2019-10-23 18:00:00 7.3 2 Noroeste 6 Noroeste 0.2 -- -- 95
2019-10-23 17:00:00 7.7 0 Calma 7 Sudoeste 0.4 -- -- 95
2019-10-23 16:00:00 7.7 2 Norte 14 Noroeste 0 -- -- 96
2019-10-23 15:00:00 8 3 Noroeste 9 Norte 1.4 -- -- 94
2019-10-23 14:00:00 8 0 Calma 21 Noroeste 0.2 -- -- 97
2019-10-23 13:00:00 8.2 3 Norte 15 Nordeste 1.2 -- -- 94
2019-10-23 12:00:00 8.4 3 Nordeste 17 Noroeste 0.2 -- -- 93
2019-10-23 11:00:00 8.1 2 Sudoeste 10 Norte 0.4 -- -- 92
2019-10-23 10:00:00 8.7 2 Norte 23 Oeste 0 -- -- 79
2019-10-23 09:00:00 9 4 Noroeste 28 Noroeste 0 -- -- 71
2019-10-23 08:00:00 9.1 10 Noroeste 32 Noroeste 0 -- -- 68
2019-10-23 07:00:00 8.8 8 Noroeste 28 Norte 0 -- -- 72
2019-10-23 06:00:00 8.5 6 Noroeste 25 Noroeste 0 -- -- 74
2019-10-23 05:00:00 8.9 8 Noroeste 27 Norte 0 -- -- 72
2019-10-23 04:00:00 8.7 10 Noroeste 44 Noroeste 0 -- -- 70
2019-10-23 03:00:00 7.6 3 Norte 17 Noroeste 0 -- -- 84
2019-10-23 02:00:00 7.2 5 Noroeste 17 Noroeste 0 -- -- 87
2019-10-23 01:00:00 6.3 0 Calma 6 Norte 0 -- -- 96
2019-10-23 00:00:00 6.6 0 Calma 9 Norte 0.2 -- -- 96
2019-10-22 23:00:00 6.8 0 Calma 4 Sudoeste 0 -- -- 94
2019-10-22 22:00:00 7.1 0 Calma 4 Nordeste 0 -- -- 93
2019-10-22 21:00:00 7.6 0 Calma 3 Sudeste 0 -- -- 91
2019-10-22 20:00:00 8.6 0 Calma 6 Norte 0 -- -- 85
2019-10-22 19:00:00 10.5 0 Calma 11 Noroeste 0 -- -- 77
2019-10-22 18:00:00 12.6 3 Norte 13 Noroeste 0 -- -- 59
2019-10-22 17:00:00 12.7 4 Nordeste 15 Este 0 -- -- 49
2019-10-22 16:00:00 13.2 5 Este 15 Sur 0 -- -- 53
2019-10-22 15:00:00 12.9 3 Nordeste 13 Norte 0 -- -- 56
2019-10-22 14:00:00 11.6 3 Nordeste 15 Este 0 -- -- 63
2019-10-22 13:00:00 10.3 4 Nordeste 18 Sudeste 0 -- -- 79
2019-10-22 12:00:00 7.6 0 Calma -- -- -- -- -- 100
2019-10-22 11:00:00 3.1 0 Calma 3 Norte 0 -- -- 100
2019-10-22 10:00:00 -0.3 0 Calma -- -- 0 -- -- 100
2019-10-22 09:00:00 -0.5 0 Calma 5 Noroeste 0 -- -- 100
2019-10-22 08:00:00 0.4 0 Calma 4 Noroeste 0 -- -- 100
2019-10-22 07:00:00 0.2 0 Calma 7 Sudeste 0 -- -- 99
2019-10-22 06:00:00 0.6 0 Calma 4 Este 0 -- -- 98
2019-10-22 05:00:00 1.8 0 Calma 5 Norte 0 -- -- 98
2019-10-22 04:00:00 3.3 0 Calma 4 Noroeste 0 -- -- 99
2019-10-22 03:00:00 4.2 0 Calma 7 Norte 0 -- -- 99
2019-10-22 02:00:00 4.9 2 Noroeste 8 Oeste 0.6 -- -- 99
2019-10-22 01:00:00 5 0 Calma 5 Este 2.4 -- -- 100
2019-10-22 00:00:00 4.9 0 Calma 4 Este 0 -- -- 99
2019-10-21 23:00:00 5 0 Calma 5 Sur 0 -- -- 99
2019-10-21 22:00:00 5.1 0 Calma 9 Oeste 0.4 -- -- 98
2019-10-21 21:00:00 5.3 2 Nordeste 9 Nordeste 0.6 -- -- 98
2019-10-21 20:00:00 6 0 Calma 6 Oeste 0.2 -- -- 96
2019-10-21 19:00:00 6.7 0 Calma 5 Noroeste 1 -- -- 95
2019-10-21 18:00:00 8.2 0 Calma 9 Sudeste 0.4 -- -- 87
2019-10-21 17:00:00 8.9 0 Calma 9 Noroeste 0 -- -- 87
2019-10-21 16:00:00 8.3 3 Noroeste 11 Noroeste 0.8 -- -- 90
2019-10-21 15:00:00 8.7 3 Noroeste 10 Sudeste 0.2 -- -- 81
2019-10-21 14:00:00 9.2 2 Sur 8 Este 0 -- -- 76
2019-10-21 13:00:00 7.9 3 Sudeste 7 Sudeste 0 -- -- 85
2019-10-21 12:00:00 5.5 0 Calma 2 Norte 0 -- -- 100
2019-10-21 11:00:00 2.4 0 Calma 2 Sudoeste 0 -- -- 100
2019-10-21 10:00:00 0.1 0 Calma 2 Norte 0 -- -- 100
2019-10-21 09:00:00 -1.1 0 Calma 2 Norte 0 -- -- 100
2019-10-21 08:00:00 -2.2 0 Calma 2 Noroeste 0 -- -- 99
2019-10-21 07:00:00 -2.3 0 Calma 2 Norte 0 -- -- 99
2019-10-21 06:00:00 -2 0 Calma 2 Norte 0 -- -- 99
2019-10-21 05:00:00 -1.7 0 Calma 2 Norte 0 -- -- 99
2019-10-21 04:00:00 -1.5 0 Calma 2 Noroeste 0 -- -- 98
2019-10-21 03:00:00 -1 0 Calma 4 Sudoeste 0 -- -- 98
2019-10-21 02:00:00 -0.1 0 Calma 3 Norte 0 -- -- 98
2019-10-21 01:00:00 0.6 0 Calma 5 Norte 0 -- -- 97
2019-10-21 00:00:00 1.7 0 Calma 2 Norte 0 -- -- 97
2019-10-20 23:00:00 2.6 0 Calma 4 Nordeste 0 -- -- 96
2019-10-20 22:00:00 3.5 0 Calma 5 Norte 0 -- -- 96
2019-10-20 21:00:00 4.7 0 Calma 10 Noroeste 0 -- -- 91
2019-10-20 20:00:00 6.4 4 Noroeste 21 Oeste 0 -- -- 86
2019-10-20 19:00:00 8.6 6 Oeste 18 Noroeste 0 -- -- 75
2019-10-20 18:00:00 10.5 9 Oeste 22 Oeste 0 -- -- 68
2019-10-20 17:00:00 10.2 4 Sudoeste 15 Oeste 0 -- -- 70
2019-10-20 16:00:00 11.2 4 Oeste 19 Nordeste 0 -- -- 62
2019-10-20 15:00:00 12.3 5 Norte 14 Nordeste 0 -- -- 62
2019-10-20 14:00:00 11 4 Noroeste 16 Norte 0.2 -- -- 63
2019-10-20 13:00:00 9.8 3 Norte 8 Norte 0 -- -- 77
2019-10-20 12:00:00 8 0 Calma 15 Oeste 0 -- -- 91
2019-10-20 11:00:00 6.6 2 Norte 8 Noroeste 0 -- -- 99
2019-10-20 10:00:00 5.5 0 Calma 9 Sudeste 0 -- -- 97
2019-10-20 09:00:00 5.5 2 Sudeste 12 Sudeste 0 -- -- 94
2019-10-20 08:00:00 5.3 4 Noroeste 20 Noroeste 0 -- -- 95
2019-10-20 07:00:00 4.9 2 Sudoeste 12 Noroeste 0 -- -- 98
2019-10-20 06:00:00 5.1 0 Calma 16 Norte 0 -- -- 99
2019-10-20 05:00:00 5.3 3 Noroeste 18 Noroeste 0 -- -- 100
2019-10-20 04:00:00 5 0 Calma 8 Noroeste 0 -- -- 100
2019-10-20 03:00:00 4.7 0 Calma 4 Norte 0 -- -- 100
2019-10-20 02:00:00 5.4 0 Calma 4 Norte 0 -- -- 99
2019-10-20 01:00:00 6.7 0 Calma 4 Oeste 0 -- -- 100
2019-10-20 00:00:00 7.2 0 Calma 3 Nordeste 0 -- -- 99
2019-10-19 23:00:00 7.8 0 Calma 3 Sur 0 -- -- 100
2019-10-19 22:00:00 7.9 0 Calma 3 Sudeste 0.4 -- -- 100
2019-10-19 21:00:00 8.1 0 Calma 4 Oeste 0.2 -- -- 100
2019-10-19 20:00:00 8.2 0 Calma 10 Sudeste 1.8 -- -- 99
2019-10-19 19:00:00 8.4 4 Sudeste 10 Este 0.2 -- -- 99
2019-10-19 18:00:00 8.5 0 Calma 10 Noroeste 2.4 -- -- 99
2019-10-19 17:00:00 8 4 Noroeste 14 Norte 5.2 -- -- 98
2019-10-19 16:00:00 9.4 4 Noroeste 13 Noroeste 2.8 -- -- 96
2019-10-19 15:00:00 10.3 3 Sudeste 9 Sudeste 3 -- -- 99
2019-10-19 14:00:00 10.1 2 Sur 15 Sudeste 1.8 -- -- 99
2019-10-19 13:00:00 9.9 6 Sur 19 Este 1.2 -- -- 99
2019-10-19 12:00:00 9.4 5 Sur 23 Sudeste 3.4 -- -- 99
2019-10-19 11:00:00 9.4 4 Sudeste 14 Sudeste 2.6 -- -- 99
2019-10-19 10:00:00 9.3 3 Sudeste 12 Sudeste 1.6 -- -- 99
2019-10-19 09:00:00 9.2 2 Sudeste 6 Sudeste 1.6 -- -- 99
2019-10-19 08:00:00 9.2 0 Calma 8 Sudeste 0.8 -- -- 99
2019-10-19 07:00:00 9.1 3 Sudeste 12 Sur 0.2 -- -- 99
2019-10-19 06:00:00 9.2 3 Sudeste 16 Sudoeste 0 -- -- 98
2019-10-19 05:00:00 9.3 6 Sur 16 Sudoeste 0.2 -- -- 98
2019-10-19 04:00:00 9.3 3 Sur 12 Sudeste 0.4 -- -- 98
2019-10-19 03:00:00 9.3 3 Sur 9 Sudeste 0.6 -- -- 97
2019-10-19 02:00:00 9.4 3 Sur 15 Sudeste 0.2 -- -- 96
2019-10-19 01:00:00 9.7 3 Sur 11 Sudeste 0.4 -- -- 95
2019-10-19 00:00:00 10.1 0 Calma 7 Sur 0.2 -- -- 93
2019-10-18 23:00:00 10.7 4 Sur 13 Sudoeste 0 -- -- 87
2019-10-18 22:00:00 10.7 5 Sur 14 Sur 0 -- -- 85
2019-10-18 21:00:00 10.6 3 Sur 12 Sudeste 0 -- -- 85
2019-10-18 20:00:00 11.1 4 Sur 14 Sur 0 -- -- 82
2019-10-18 19:00:00 11.8 4 Sur 15 Sur 0 -- -- 80
2019-10-18 18:00:00 12.4 7 Sur 20 Sur 0 -- -- 77
2019-10-18 17:00:00 13.4 7 Sur 20 Oeste 0 -- -- 72
2019-10-18 16:00:00 13.3 6 Sur 23 Sur 0 -- -- 68
2019-10-18 15:00:00 13 6 Sur 16 Sur 0 -- -- 73
2019-10-18 14:00:00 12.5 4 Sur 12 Sur 0 -- -- 70
2019-10-18 13:00:00 12.1 3 Sur 13 Sur 0 -- -- 77
2019-10-18 12:00:00 10.9 4 Sudeste 8 Este 0 -- -- 83
2019-10-18 11:00:00 9.8 0 Calma 8 Sur 0 -- -- 88
2019-10-18 10:00:00 8.4 0 Calma 8 Este 0 -- -- 92
2019-10-18 09:00:00 8.6 0 Calma 15 Oeste 0 -- -- 87
2019-10-18 08:00:00 9.8 5 Oeste 19 Noroeste 0 -- -- 78
2019-10-18 07:00:00 8.3 2 Norte 6 Nordeste 0 -- -- 86
2019-10-18 06:00:00 9.2 3 Nordeste 13 Sur 0 -- -- 90
2019-10-18 05:00:00 10.3 4 Sudoeste 14 Sur 0 -- -- 85
2019-10-18 04:00:00 10.6 3 Sudoeste 10 Norte 0 -- -- 85
2019-10-18 03:00:00 10.8 2 Nordeste 17 Sur 0 -- -- 89
2019-10-18 02:00:00 12.2 4 Sudoeste 14 Sudeste 0 -- -- 83
2019-10-18 01:00:00 12 3 Sudoeste 8 Noroeste 0 -- -- 92
2019-10-18 00:00:00 12.3 0 Calma 8 Sur 0 -- -- 93
2019-10-17 23:00:00 12.7 2 Sudoeste 8 Oeste 0 -- -- 93
2019-10-17 22:00:00 12.6 0 Calma 6 Sudeste 0 -- -- 97
2019-10-17 21:00:00 12.6 0 Calma 10 Sudeste 0 -- -- 96
2019-10-17 20:00:00 13.2 3 Sur 13 Sudoeste 0.2 -- -- 92
2019-10-17 19:00:00 14.9 5 Sur 17 Sur 0 -- -- 78
2019-10-17 18:00:00 15.5 3 Sudoeste 21 Sur 0 -- -- 69
2019-10-17 17:00:00 16.2 7 Sudoeste 23 Sudoeste 0 -- -- 66
2019-10-17 16:00:00 17 7 Sudoeste 23 Sur 0 -- -- 58
2019-10-17 15:00:00 16.4 6 Sudoeste 25 Sur 0 -- -- 63
2019-10-17 14:00:00 15.9 7 Sudoeste 23 Sur 0 -- -- 67
2019-10-17 13:00:00 15.6 5 Sudoeste 20 Oeste 0 -- -- 73
2019-10-17 12:00:00 14.3 5 Sudoeste 16 Sudoeste 0 -- -- 74
2019-10-17 11:00:00 12.8 5 Sudoeste 19 Sudoeste 0 -- -- 87
2019-10-17 10:00:00 10.3 0 Calma 4 Sudeste 0 -- -- 100
2019-10-17 09:00:00 10.3 0 Calma 2 Sur 0.2 -- -- 100
2019-10-17 08:00:00 10.2 0 Calma 5 Norte 0.4 -- -- 100
2019-10-17 07:00:00 9.8 0 Calma 4 Norte 0 -- -- 100
2019-10-17 06:00:00 10.1 0 Calma 3 Norte 0.2 -- -- 100
2019-10-17 05:00:00 10.4 0 Calma 4 Este 0.2 -- -- 100
2019-10-17 04:00:00 10.4 0 Calma 5 Este 0.8 -- -- 100
2019-10-17 03:00:00 10.4 0 Calma 6 Este 2.4 -- -- 100
2019-10-17 02:00:00 10.4 0 Calma 5 Este 3.6 -- -- 100
2019-10-17 01:00:00 10.4 0 Calma 7 Este 2.8 -- -- 100
2019-10-17 00:00:00 10.3 0 Calma 8 Sudeste 3.6 -- -- 100
2019-10-16 23:00:00 10.3 4 Sudeste 9 Sudeste 1.4 -- -- 100
2019-10-16 22:00:00 10.2 3 Sudeste 9 Este 1.8 -- -- 99
2019-10-16 21:00:00 10.3 4 Sudeste 10 Sur 1 -- -- 99
2019-10-16 20:00:00 10.2 2 Este 9 Sur 0.8 -- -- 98
2019-10-16 19:00:00 10.5 2 Sur 12 Sur 0.2 -- -- 98
2019-10-16 18:00:00 10.7 0 Calma 12 Sudeste 0 -- -- 99
2019-10-16 17:00:00 10.3 4 Sur 12 Sudeste 0.2 -- -- 99
2019-10-16 16:00:00 10.1 0 Calma 9 Sur 0.4 -- -- 98
2019-10-16 15:00:00 10.2 2 Sudeste 10 Sudeste 0.6 -- -- 98
2019-10-16 14:00:00 9.9 3 Sudeste 13 Sudeste 0 -- -- 98
2019-10-16 13:00:00 9.8 4 Sur 12 Sur 0.2 -- -- 98
2019-10-16 12:00:00 9.4 4 Sudeste 10 Este 0.2 -- -- 100
2019-10-16 11:00:00 8.7 2 Nordeste 8 Este 0.2 -- -- 100
2019-10-16 10:00:00 8.5 4 Sudeste 10 Sur 0 -- -- 99
2019-10-16 09:00:00 8.4 4 Sur 9 Sudoeste 0 -- -- 99
2019-10-16 08:00:00 8.3 3 Sudeste 9 Sudeste 0.2 -- -- 99
2019-10-16 07:00:00 8.1 2 Sudeste 5 Sudeste 0 -- -- 99
2019-10-16 06:00:00 8.1 0 Calma 6 Este 0.4 -- -- 99
2019-10-16 05:00:00 8 3 Este 7 Este 0 -- -- 98
2019-10-16 04:00:00 8 3 Este 10 Sur 0.8 -- -- 98
2019-10-16 03:00:00 8.1 3 Sudeste 14 Este 1.4 -- -- 97
2019-10-16 02:00:00 8.3 3 Sudeste 12 Sur 0 -- -- 96
2019-10-16 01:00:00 8.4 4 Sudeste 10 Sudeste 0 -- -- 96
2019-10-16 00:00:00 8.6 2 Sudeste 6 Este 0.2 -- -- 97
2019-10-15 23:00:00 8.7 0 Calma 9 Sur 0.2 -- -- 96
2019-10-15 22:00:00 8.8 3 Sudeste 11 Sur 0 -- -- 94
2019-10-15 21:00:00 8.7 3 Sudeste 11 Sudeste 0 -- -- 92
2019-10-15 20:00:00 9 2 Sur 14 Sudoeste 0.2 -- -- 91
2019-10-15 19:00:00 9.7 2 Sudoeste 17 Sudoeste 0 -- -- 84
2019-10-15 18:00:00 10.3 4 Sur 19 Sur 0 -- -- 78
2019-10-15 17:00:00 9.1 3 Sur 11 Este 0 -- -- 89
2019-10-15 16:00:00 8.9 4 Sur 14 Sudeste 0 -- -- 91
2019-10-15 15:00:00 9.4 4 Sur 15 Sur 0.2 -- -- 90
2019-10-15 14:00:00 9.9 4 Sur 24 Sur 0 -- -- 80
2019-10-15 13:00:00 11.2 7 Sudoeste 26 Sudoeste 0 -- -- 70
2019-10-15 12:00:00 10.5 3 Norte 9 Sur 0 -- -- 78
2019-10-15 11:00:00 6.7 2 Sudeste 9 Sudeste 0 -- -- 98
2019-10-15 10:00:00 4 2 Oeste 6 Noroeste 0 -- -- 100
2019-10-15 09:00:00 3.3 0 Calma 6 Sudeste 0 -- -- 99
2019-10-15 08:00:00 4 0 Calma 4 Sudeste 0 -- -- 99
2019-10-15 07:00:00 4.1 0 Calma 5 Este 0 -- -- 98
2019-10-15 06:00:00 4.2 2 Nordeste 9 Sudeste 0 -- -- 97
2019-10-15 05:00:00 3.5 3 Nordeste 6 Norte 0 -- -- 96
2019-10-15 04:00:00 4 0 Calma 9 Este 0 -- -- 95
2019-10-15 03:00:00 4.6 2 Este 10 Sur 0 -- -- 91
2019-10-15 02:00:00 6.5 6 Oeste 24 Sudoeste 0 -- -- 80
2019-10-15 01:00:00 5.7 5 Oeste 15 Oeste 0 -- -- 84
2019-10-15 00:00:00 5.6 5 Oeste 22 Noroeste 0 -- -- 83
2019-10-14 23:00:00 5.6 6 Oeste 24 Noroeste 0 -- -- 84
2019-10-14 22:00:00 5.3 4 Oeste 15 Sudoeste 0 -- -- 87
2019-10-14 21:00:00 4.7 3 Sur 18 Oeste 0 -- -- 93
2019-10-14 20:00:00 6.1 5 Noroeste 26 Sudoeste 0.4 -- -- 88
2019-10-14 19:00:00 7.7 6 Oeste 29 Noroeste 0.2 -- -- 77
2019-10-14 18:00:00 8.7 10 Oeste 26 Noroeste 0 -- -- 79
2019-10-14 17:00:00 8.4 4 Oeste 19 Oeste 0.4 -- -- 89
2019-10-14 16:00:00 8 10 Oeste 25 Oeste 0.6 -- -- 86
2019-10-14 15:00:00 10.2 4 Sudoeste 12 Sudoeste 0 -- -- 88
2019-10-14 14:00:00 9.1 5 Sudeste 16 Sudoeste 0.4 -- -- 96
2019-10-14 13:00:00 8.9 3 Sur 15 Sur 1.8 -- -- 98
2019-10-14 12:00:00 8.4 3 Sur 15 Sur 2.4 -- -- 98
2019-10-14 11:00:00 8.2 3 Sur 11 Este 0.2 -- -- 98
2019-10-14 10:00:00 7.6 2 Sur 6 Sur 0 -- -- 98
2019-10-14 09:00:00 7.4 0 Calma 9 Este 2.4 -- -- 97
2019-10-14 08:00:00 7.7 2 Este 18 Noroeste 1 -- -- 96
2019-10-14 07:00:00 9.1 9 Noroeste 19 Oeste 0.6 -- -- 87
2019-10-14 06:00:00 11 3 Sur 10 Sudeste 0.4 -- -- 93
2019-10-14 05:00:00 11.1 3 Sudeste 9 Sudeste 0 -- -- 95
2019-10-14 04:00:00 10.7 3 Sudeste 8 Sudeste 0 -- -- 97
2019-10-14 03:00:00 10.3 0 Calma 3 Noroeste 0 -- -- 97
2019-10-14 02:00:00 10.6 0 Calma 4 Sur 0 -- -- 96
2019-10-14 01:00:00 11 0 Calma 6 Norte 0 -- -- 94
2019-10-14 00:00:00 11.8 0 Calma 4 Este 0 -- -- 90